sensor_id;sensor_type;location;lat;lon;timestamp;temperature;humidity
11229;DHT22;5671;47.936;8.716;2023-05-29T00:00:57;8.80;63.50
11229;DHT22;5671;47.936;8.716;2023-05-29T00:03:25;8.80;63.30
11229;DHT22;5671;47.936;8.716;2023-05-29T00:05:52;8.80;62.50
11229;DHT22;5671;47.936;8.716;2023-05-29T00:08:20;8.70;63.30
11229;DHT22;5671;47.936;8.716;2023-05-29T00:10:50;8.60;63.60
11229;DHT22;5671;47.936;8.716;2023-05-29T00:13:16;8.60;63.50
11229;DHT22;5671;47.936;8.716;2023-05-29T00:15:43;8.60;63.10
11229;DHT22;5671;47.936;8.716;2023-05-29T00:18:10;8.50;65.20
11229;DHT22;5671;47.936;8.716;2023-05-29T00:20:37;8.50;65.00
11229;DHT22;5671;47.936;8.716;2023-05-29T00:23:04;8.40;66.40
11229;DHT22;5671;47.936;8.716;2023-05-29T00:25:32;8.30;66.50
11229;DHT22;5671;47.936;8.716;2023-05-29T00:27:59;8.30;64.00
11229;DHT22;5671;47.936;8.716;2023-05-29T00:30:26;8.20;65.10
11229;DHT22;5671;47.936;8.716;2023-05-29T00:32:53;8.20;65.90
11229;DHT22;5671;47.936;8.716;2023-05-29T00:35:20;8.10;65.40
11229;DHT22;5671;47.936;8.716;2023-05-29T00:37:47;8.10;64.60
11229;DHT22;5671;47.936;8.716;2023-05-29T00:40:13;8.00;64.50
11229;DHT22;5671;47.936;8.716;2023-05-29T00:42:42;8.00;64.80
11229;DHT22;5671;47.936;8.716;2023-05-29T00:45:09;8.00;64.40
11229;DHT22;5671;47.936;8.716;2023-05-29T00:47:37;7.90;66.10
11229;DHT22;5671;47.936;8.716;2023-05-29T00:50:05;7.90;66.50
11229;DHT22;5671;47.936;8.716;2023-05-29T00:52:33;7.80;66.00
11229;DHT22;5671;47.936;8.716;2023-05-29T00:55:00;7.80;65.90
11229;DHT22;5671;47.936;8.716;2023-05-29T00:57:28;7.80;65.80
11229;DHT22;5671;47.936;8.716;2023-05-29T00:59:58;7.80;67.50
11229;DHT22;5671;47.936;8.716;2023-05-29T01:02:25;7.70;66.90
11229;DHT22;5671;47.936;8.716;2023-05-29T01:04:52;7.70;66.80
11229;DHT22;5671;47.936;8.716;2023-05-29T01:07:20;7.70;68.40
11229;DHT22;5671;47.936;8.716;2023-05-29T01:09:47;7.60;66.80
11229;DHT22;5671;47.936;8.716;2023-05-29T01:12:25;7.60;67.40
11229;DHT22;5671;47.936;8.716;2023-05-29T01:15:04;7.50;67.80
11229;DHT22;5671;47.936;8.716;2023-05-29T01:17:42;7.50;67.50
11229;DHT22;5671;47.936;8.716;2023-05-29T01:20:21;7.40;66.70
11229;DHT22;5671;47.936;8.716;2023-05-29T01:23:07;7.40;67.20
11229;DHT22;5671;47.936;8.716;2023-05-29T01:25:46;7.30;67.10
11229;DHT22;5671;47.936;8.716;2023-05-29T01:28:21;7.30;66.20
11229;DHT22;5671;47.936;8.716;2023-05-29T01:30:49;7.20;65.90
11229;DHT22;5671;47.936;8.716;2023-05-29T01:33:17;7.20;66.50
11229;DHT22;5671;47.936;8.716;2023-05-29T01:35:44;7.10;66.70
11229;DHT22;5671;47.936;8.716;2023-05-29T01:38:10;7.10;66.30
11229;DHT22;5671;47.936;8.716;2023-05-29T01:40:37;7.00;66.50
11229;DHT22;5671;47.936;8.716;2023-05-29T01:43:05;7.00;67.40
11229;DHT22;5671;47.936;8.716;2023-05-29T01:45:33;7.00;67.10
11229;DHT22;5671;47.936;8.716;2023-05-29T01:48:00;7.00;66.70
11229;DHT22;5671;47.936;8.716;2023-05-29T01:50:27;6.90;67.40
11229;DHT22;5671;47.936;8.716;2023-05-29T01:52:55;6.90;68.50
11229;DHT22;5671;47.936;8.716;2023-05-29T01:55:22;6.90;68.90
11229;DHT22;5671;47.936;8.716;2023-05-29T01:57:49;6.80;69.90
11229;DHT22;5671;47.936;8.716;2023-05-29T02:00:17;6.80;68.60
11229;DHT22;5671;47.936;8.716;2023-05-29T02:02:46;6.80;70.20
11229;DHT22;5671;47.936;8.716;2023-05-29T02:05:12;6.70;69.60
11229;DHT22;5671;47.936;8.716;2023-05-29T02:07:39;6.70;69.80
11229;DHT22;5671;47.936;8.716;2023-05-29T02:10:06;6.70;71.30
11229;DHT22;5671;47.936;8.716;2023-05-29T02:12:33;6.70;71.20
11229;DHT22;5671;47.936;8.716;2023-05-29T02:15:00;6.60;70.80
11229;DHT22;5671;47.936;8.716;2023-05-29T02:17:27;6.60;70.90
11229;DHT22;5671;47.936;8.716;2023-05-29T02:19:55;6.60;68.80
11229;DHT22;5671;47.936;8.716;2023-05-29T02:22:21;6.60;68.80
11229;DHT22;5671;47.936;8.716;2023-05-29T02:24:48;6.50;69.90
11229;DHT22;5671;47.936;8.716;2023-05-29T02:27:15;6.50;69.30
11229;DHT22;5671;47.936;8.716;2023-05-29T02:29:42;6.40;69.10
11229;DHT22;5671;47.936;8.716;2023-05-29T02:32:09;6.40;70.40
11229;DHT22;5671;47.936;8.716;2023-05-29T02:34:36;6.40;71.50
11229;DHT22;5671;47.936;8.716;2023-05-29T02:37:04;6.30;69.90
11229;DHT22;5671;47.936;8.716;2023-05-29T02:39:31;6.30;69.20
11229;DHT22;5671;47.936;8.716;2023-05-29T02:41:58;6.20;69.30
11229;DHT22;5671;47.936;8.716;2023-05-29T02:44:24;6.20;69.10
11229;DHT22;5671;47.936;8.716;2023-05-29T02:46:51;6.20;69.70
11229;DHT22;5671;47.936;8.716;2023-05-29T02:49:18;6.10;70.50
11229;DHT22;5671;47.936;8.716;2023-05-29T02:51:45;6.10;70.20
11229;DHT22;5671;47.936;8.716;2023-05-29T02:54:13;6.10;70.20
11229;DHT22;5671;47.936;8.716;2023-05-29T02:56:40;6.10;71.30
11229;DHT22;5671;47.936;8.716;2023-05-29T02:59:06;6.10;71.50
11229;DHT22;5671;47.936;8.716;2023-05-29T03:01:33;6.10;71.70
11229;DHT22;5671;47.936;8.716;2023-05-29T03:04:00;6.10;72.80
11229;DHT22;5671;47.936;8.716;2023-05-29T03:06:27;6.10;72.60
11229;DHT22;5671;47.936;8.716;2023-05-29T03:08:54;6.10;72.10
11229;DHT22;5671;47.936;8.716;2023-05-29T03:11:22;6.00;73.00
11229;DHT22;5671;47.936;8.716;2023-05-29T03:13:50;6.00;73.90
11229;DHT22;5671;47.936;8.716;2023-05-29T03:16:17;5.90;74.20
11229;DHT22;5671;47.936;8.716;2023-05-29T03:18:43;6.00;74.40
11229;DHT22;5671;47.936;8.716;2023-05-29T03:21:10;5.90;73.70
11229;DHT22;5671;47.936;8.716;2023-05-29T03:23:37;5.90;72.30
11229;DHT22;5671;47.936;8.716;2023-05-29T03:26:04;5.90;73.90
11229;DHT22;5671;47.936;8.716;2023-05-29T03:28:33;5.90;72.50
11229;DHT22;5671;47.936;8.716;2023-05-29T03:31:00;5.90;71.80
11229;DHT22;5671;47.936;8.716;2023-05-29T03:33:27;5.90;71.10
11229;DHT22;5671;47.936;8.716;2023-05-29T03:35:54;5.80;72.20
11229;DHT22;5671;47.936;8.716;2023-05-29T03:38:21;5.80;71.90
11229;DHT22;5671;47.936;8.716;2023-05-29T03:40:49;5.80;71.70
11229;DHT22;5671;47.936;8.716;2023-05-29T03:43:15;5.80;72.10
11229;DHT22;5671;47.936;8.716;2023-05-29T03:45:44;5.80;72.10
11229;DHT22;5671;47.936;8.716;2023-05-29T03:48:10;5.70;71.70
11229;DHT22;5671;47.936;8.716;2023-05-29T03:50:37;5.70;73.10
11229;DHT22;5671;47.936;8.716;2023-05-29T03:53:04;5.70;72.00
11229;DHT22;5671;47.936;8.716;2023-05-29T03:55:31;5.70;73.30
11229;DHT22;5671;47.936;8.716;2023-05-29T03:57:58;5.60;74.40
11229;DHT22;5671;47.936;8.716;2023-05-29T04:00:25;5.60;73.90
11229;DHT22;5671;47.936;8.716;2023-05-29T04:02:54;5.60;72.60
11229;DHT22;5671;47.936;8.716;2023-05-29T04:05:21;5.60;73.30
11229;DHT22;5671;47.936;8.716;2023-05-29T04:07:48;5.60;74.30
11229;DHT22;5671;47.936;8.716;2023-05-29T04:10:15;5.60;74.40
11229;DHT22;5671;47.936;8.716;2023-05-29T04:12:42;5.60;73.70
11229;DHT22;5671;47.936;8.716;2023-05-29T04:15:09;5.50;73.90
11229;DHT22;5671;47.936;8.716;2023-05-29T04:17:36;5.50;72.80
11229;DHT22;5671;47.936;8.716;2023-05-29T04:20:05;5.50;72.60
11229;DHT22;5671;47.936;8.716;2023-05-29T04:22:34;5.40;72.80
11229;DHT22;5671;47.936;8.716;2023-05-29T04:25:01;5.40;73.00
11229;DHT22;5671;47.936;8.716;2023-05-29T04:27:29;5.40;71.40
11229;DHT22;5671;47.936;8.716;2023-05-29T04:29:57;5.40;70.90
11229;DHT22;5671;47.936;8.716;2023-05-29T04:32:24;5.40;72.40
11229;DHT22;5671;47.936;8.716;2023-05-29T04:34:51;5.40;73.00
11229;DHT22;5671;47.936;8.716;2023-05-29T04:37:19;5.40;72.50
11229;DHT22;5671;47.936;8.716;2023-05-29T04:39:54;5.40;74.00
11229;DHT22;5671;47.936;8.716;2023-05-29T04:42:21;5.40;73.60
11229;DHT22;5671;47.936;8.716;2023-05-29T04:44:50;5.40;72.80
11229;DHT22;5671;47.936;8.716;2023-05-29T04:47:18;5.40;73.80
11229;DHT22;5671;47.936;8.716;2023-05-29T04:49:45;5.50;73.50
11229;DHT22;5671;47.936;8.716;2023-05-29T04:52:14;5.50;74.10
11229;DHT22;5671;47.936;8.716;2023-05-29T04:54:43;5.60;74.50
11229;DHT22;5671;47.936;8.716;2023-05-29T04:57:09;5.60;75.00
11229;DHT22;5671;47.936;8.716;2023-05-29T04:59:37;5.70;75.40
11229;DHT22;5671;47.936;8.716;2023-05-29T05:02:04;5.70;74.40
11229;DHT22;5671;47.936;8.716;2023-05-29T05:04:31;5.80;74.60
11229;DHT22;5671;47.936;8.716;2023-05-29T05:06:58;5.90;74.90
11229;DHT22;5671;47.936;8.716;2023-05-29T05:09:26;6.00;74.70
11229;DHT22;5671;47.936;8.716;2023-05-29T05:11:54;6.00;74.30
11229;DHT22;5671;47.936;8.716;2023-05-29T05:14:21;6.10;73.80
11229;DHT22;5671;47.936;8.716;2023-05-29T05:16:48;6.20;73.80
11229;DHT22;5671;47.936;8.716;2023-05-29T05:19:16;6.30;73.90
11229;DHT22;5671;47.936;8.716;2023-05-29T05:21:43;6.30;74.30
11229;DHT22;5671;47.936;8.716;2023-05-29T05:24:10;6.40;74.50
11229;DHT22;5671;47.936;8.716;2023-05-29T05:26:36;6.50;73.50
11229;DHT22;5671;47.936;8.716;2023-05-29T05:29:04;6.60;74.60
11229;DHT22;5671;47.936;8.716;2023-05-29T05:31:31;6.70;73.90
11229;DHT22;5671;47.936;8.716;2023-05-29T05:33:58;6.80;74.40
11229;DHT22;5671;47.936;8.716;2023-05-29T05:36:25;6.80;72.60
11229;DHT22;5671;47.936;8.716;2023-05-29T05:38:52;6.90;74.40
11229;DHT22;5671;47.936;8.716;2023-05-29T05:41:19;7.00;74.20
11229;DHT22;5671;47.936;8.716;2023-05-29T05:43:46;7.10;73.70
11229;DHT22;5671;47.936;8.716;2023-05-29T05:46:14;7.20;74.40
11229;DHT22;5671;47.936;8.716;2023-05-29T05:48:42;7.30;74.70
11229;DHT22;5671;47.936;8.716;2023-05-29T05:51:09;7.40;74.00
11229;DHT22;5671;47.936;8.716;2023-05-29T05:53:37;7.50;72.80
11229;DHT22;5671;47.936;8.716;2023-05-29T05:56:04;7.60;74.00
11229;DHT22;5671;47.936;8.716;2023-05-29T05:58:31;7.80;74.00
11229;DHT22;5671;47.936;8.716;2023-05-29T06:00:57;7.90;73.40
11229;DHT22;5671;47.936;8.716;2023-05-29T06:03:26;8.00;74.30
11229;DHT22;5671;47.936;8.716;2023-05-29T06:05:53;8.10;73.70
11229;DHT22;5671;47.936;8.716;2023-05-29T06:08:22;8.30;73.60
11229;DHT22;5671;47.936;8.716;2023-05-29T06:10:49;8.40;74.80
11229;DHT22;5671;47.936;8.716;2023-05-29T06:13:16;8.60;74.60
11229;DHT22;5671;47.936;8.716;2023-05-29T06:15:43;8.80;74.60
11229;DHT22;5671;47.936;8.716;2023-05-29T06:18:10;9.00;74.80
11229;DHT22;5671;47.936;8.716;2023-05-29T06:20:38;9.30;74.00
11229;DHT22;5671;47.936;8.716;2023-05-29T06:23:05;9.50;73.10
11229;DHT22;5671;47.936;8.716;2023-05-29T06:25:32;9.70;73.40
11229;DHT22;5671;47.936;8.716;2023-05-29T06:28:02;9.90;73.60
11229;DHT22;5671;47.936;8.716;2023-05-29T06:30:31;10.10;71.80
11229;DHT22;5671;47.936;8.716;2023-05-29T06:32:58;10.30;70.60
11229;DHT22;5671;47.936;8.716;2023-05-29T06:35:25;10.40;72.80
11229;DHT22;5671;47.936;8.716;2023-05-29T06:37:53;10.60;70.70
11229;DHT22;5671;47.936;8.716;2023-05-29T06:40:20;10.80;71.40
11229;DHT22;5671;47.936;8.716;2023-05-29T06:42:47;11.00;71.40
11229;DHT22;5671;47.936;8.716;2023-05-29T06:45:14;11.20;72.20
11229;DHT22;5671;47.936;8.716;2023-05-29T06:47:45;11.40;69.80
11229;DHT22;5671;47.936;8.716;2023-05-29T06:50:13;11.60;68.70
11229;DHT22;5671;47.936;8.716;2023-05-29T06:52:40;11.80;67.50
11229;DHT22;5671;47.936;8.716;2023-05-29T06:55:09;12.10;66.40
11229;DHT22;5671;47.936;8.716;2023-05-29T06:57:35;12.40;63.90
11229;DHT22;5671;47.936;8.716;2023-05-29T07:00:06;12.60;64.20
11229;DHT22;5671;47.936;8.716;2023-05-29T07:02:33;12.80;62.70
11229;DHT22;5671;47.936;8.716;2023-05-29T07:05:02;13.10;61.30
11229;DHT22;5671;47.936;8.716;2023-05-29T07:07:29;13.30;60.90
11229;DHT22;5671;47.936;8.716;2023-05-29T07:09:55;13.50;60.90
11229;DHT22;5671;47.936;8.716;2023-05-29T07:12:24;13.70;59.80
11229;DHT22;5671;47.936;8.716;2023-05-29T07:14:51;13.90;58.90
11229;DHT22;5671;47.936;8.716;2023-05-29T07:17:18;14.20;58.60
11229;DHT22;5671;47.936;8.716;2023-05-29T07:19:44;14.30;58.50
11229;DHT22;5671;47.936;8.716;2023-05-29T07:22:12;14.50;57.60
11229;DHT22;5671;47.936;8.716;2023-05-29T07:24:39;14.70;56.30
11229;DHT22;5671;47.936;8.716;2023-05-29T07:27:06;14.90;56.70
11229;DHT22;5671;47.936;8.716;2023-05-29T07:29:34;15.00;56.50
11229;DHT22;5671;47.936;8.716;2023-05-29T07:32:01;15.20;55.80
11229;DHT22;5671;47.936;8.716;2023-05-29T07:34:28;15.30;55.30
11229;DHT22;5671;47.936;8.716;2023-05-29T07:36:59;15.50;55.30
11229;DHT22;5671;47.936;8.716;2023-05-29T07:39:26;15.70;54.70
11229;DHT22;5671;47.936;8.716;2023-05-29T07:41:53;15.80;54.30
11229;DHT22;5671;47.936;8.716;2023-05-29T07:44:20;15.90;54.30
11229;DHT22;5671;47.936;8.716;2023-05-29T07:46:48;16.10;52.20
11229;DHT22;5671;47.936;8.716;2023-05-29T07:49:15;16.20;51.70
11229;DHT22;5671;47.936;8.716;2023-05-29T07:51:42;16.30;52.90
11229;DHT22;5671;47.936;8.716;2023-05-29T07:54:16;16.40;51.70
11229;DHT22;5671;47.936;8.716;2023-05-29T07:56:47;16.60;52.20
11229;DHT22;5671;47.936;8.716;2023-05-29T07:59:14;16.70;51.20
11229;DHT22;5671;47.936;8.716;2023-05-29T08:01:40;16.80;51.30
11229;DHT22;5671;47.936;8.716;2023-05-29T08:04:11;16.90;50.00
11229;DHT22;5671;47.936;8.716;2023-05-29T08:06:37;17.10;49.80
11229;DHT22;5671;47.936;8.716;2023-05-29T08:09:07;17.20;50.10
11229;DHT22;5671;47.936;8.716;2023-05-29T08:11:37;17.30;48.30
11229;DHT22;5671;47.936;8.716;2023-05-29T08:14:04;17.40;48.40
11229;DHT22;5671;47.936;8.716;2023-05-29T08:16:30;17.50;48.90
11229;DHT22;5671;47.936;8.716;2023-05-29T08:18:57;17.60;48.50
11229;DHT22;5671;47.936;8.716;2023-05-29T08:21:25;17.70;47.10
11229;DHT22;5671;47.936;8.716;2023-05-29T08:23:53;17.80;47.10
11229;DHT22;5671;47.936;8.716;2023-05-29T08:26:22;17.90;46.30
11229;DHT22;5671;47.936;8.716;2023-05-29T08:28:49;18.00;46.20
11229;DHT22;5671;47.936;8.716;2023-05-29T08:31:16;18.00;47.50
11229;DHT22;5671;47.936;8.716;2023-05-29T08:33:43;18.20;46.70
11229;DHT22;5671;47.936;8.716;2023-05-29T08:36:11;18.20;46.50
11229;DHT22;5671;47.936;8.716;2023-05-29T08:38:39;18.40;46.90
11229;DHT22;5671;47.936;8.716;2023-05-29T08:41:07;18.50;45.10
11229;DHT22;5671;47.936;8.716;2023-05-29T08:43:36;18.50;46.00
11229;DHT22;5671;47.936;8.716;2023-05-29T08:46:18;18.60;46.30
11229;DHT22;5671;47.936;8.716;2023-05-29T08:48:48;18.70;45.50
11229;DHT22;5671;47.936;8.716;2023-05-29T08:51:19;18.80;45.30
11229;DHT22;5671;47.936;8.716;2023-05-29T08:53:59;18.90;45.70
11229;DHT22;5671;47.936;8.716;2023-05-29T08:56:32;19.00;46.80
11229;DHT22;5671;47.936;8.716;2023-05-29T08:59:02;19.10;44.50
11229;DHT22;5671;47.936;8.716;2023-05-29T09:01:38;19.20;43.40
11229;DHT22;5671;47.936;8.716;2023-05-29T09:04:05;19.30;41.60
11229;DHT22;5671;47.936;8.716;2023-05-29T09:06:45;19.40;42.50
11229;DHT22;5671;47.936;8.716;2023-05-29T09:09:17;19.40;41.60
11229;DHT22;5671;47.936;8.716;2023-05-29T09:11:46;19.50;41.60
11229;DHT22;5671;47.936;8.716;2023-05-29T09:14:34;19.60;41.00
11229;DHT22;5671;47.936;8.716;2023-05-29T09:17:02;19.70;41.80
11229;DHT22;5671;47.936;8.716;2023-05-29T09:19:29;19.80;40.90
11229;DHT22;5671;47.936;8.716;2023-05-29T09:22:00;19.80;40.20
11229;DHT22;5671;47.936;8.716;2023-05-29T09:24:29;19.90;39.50
11229;DHT22;5671;47.936;8.716;2023-05-29T09:26:56;20.00;39.60
11229;DHT22;5671;47.936;8.716;2023-05-29T09:29:25;20.10;38.80
11229;DHT22;5671;47.936;8.716;2023-05-29T09:31:52;20.20;39.50
11229;DHT22;5671;47.936;8.716;2023-05-29T09:34:18;20.20;39.10
11229;DHT22;5671;47.936;8.716;2023-05-29T09:36:45;20.30;40.50
11229;DHT22;5671;47.936;8.716;2023-05-29T09:39:12;20.40;38.50
11229;DHT22;5671;47.936;8.716;2023-05-29T09:41:43;20.50;39.10
11229;DHT22;5671;47.936;8.716;2023-05-29T09:44:12;20.50;38.60
11229;DHT22;5671;47.936;8.716;2023-05-29T09:46:39;20.60;38.60
11229;DHT22;5671;47.936;8.716;2023-05-29T09:49:11;20.80;38.00
11229;DHT22;5671;47.936;8.716;2023-05-29T09:51:38;20.80;37.60
11229;DHT22;5671;47.936;8.716;2023-05-29T09:54:15;20.90;38.30
11229;DHT22;5671;47.936;8.716;2023-05-29T09:56:50;21.00;38.50
11229;DHT22;5671;47.936;8.716;2023-05-29T09:59:26;21.10;39.10
11229;DHT22;5671;47.936;8.716;2023-05-29T10:02:00;21.20;38.50
11229;DHT22;5671;47.936;8.716;2023-05-29T10:04:29;21.30;37.00
11229;DHT22;5671;47.936;8.716;2023-05-29T10:07:01;21.40;36.70
11229;DHT22;5671;47.936;8.716;2023-05-29T10:09:31;21.50;37.30
11229;DHT22;5671;47.936;8.716;2023-05-29T10:12:03;21.50;38.10
11229;DHT22;5671;47.936;8.716;2023-05-29T10:14:34;21.70;37.10
11229;DHT22;5671;47.936;8.716;2023-05-29T10:17:03;21.80;37.40
11229;DHT22;5671;47.936;8.716;2023-05-29T10:19:36;21.90;38.00
11229;DHT22;5671;47.936;8.716;2023-05-29T10:22:04;22.10;36.90
11229;DHT22;5671;47.936;8.716;2023-05-29T10:24:35;22.20;35.50
11229;DHT22;5671;47.936;8.716;2023-05-29T10:27:05;22.40;35.20
11229;DHT22;5671;47.936;8.716;2023-05-29T10:29:35;22.60;35.60
11229;DHT22;5671;47.936;8.716;2023-05-29T10:32:19;22.80;34.90
11229;DHT22;5671;47.936;8.716;2023-05-29T10:34:55;23.10;35.90
11229;DHT22;5671;47.936;8.716;2023-05-29T10:37:29;23.20;35.30
11229;DHT22;5671;47.936;8.716;2023-05-29T10:40:03;23.40;35.10
11229;DHT22;5671;47.936;8.716;2023-05-29T10:42:45;23.50;35.50
11229;DHT22;5671;47.936;8.716;2023-05-29T10:45:48;23.60;35.00
11229;DHT22;5671;47.936;8.716;2023-05-29T10:48:43;23.90;35.80
11229;DHT22;5671;47.936;8.716;2023-05-29T10:51:27;24.40;36.30
11229;DHT22;5671;47.936;8.716;2023-05-29T10:53:54;24.70;36.20
11229;DHT22;5671;47.936;8.716;2023-05-29T10:56:23;24.90;34.60
11229;DHT22;5671;47.936;8.716;2023-05-29T10:58:55;25.10;35.30
11229;DHT22;5671;47.936;8.716;2023-05-29T11:01:30;25.30;32.50
11229;DHT22;5671;47.936;8.716;2023-05-29T11:04:28;25.50;33.90
11229;DHT22;5671;47.936;8.716;2023-05-29T11:07:09;26.20;33.80
11229;DHT22;5671;47.936;8.716;2023-05-29T11:10:13;26.90;31.80
11229;DHT22;5671;47.936;8.716;2023-05-29T11:12:55;27.80;30.60
11229;DHT22;5671;47.936;8.716;2023-05-29T11:15:24;28.60;29.90
11229;DHT22;5671;47.936;8.716;2023-05-29T11:17:54;29.40;30.40
11229;DHT22;5671;47.936;8.716;2023-05-29T11:20:57;30.10;29.90
11229;DHT22;5671;47.936;8.716;2023-05-29T11:23:31;30.70;30.00
11229;DHT22;5671;47.936;8.716;2023-05-29T11:26:01;31.60;27.50
11229;DHT22;5671;47.936;8.716;2023-05-29T11:29:54;31.90;27.60
11229;DHT22;5671;47.936;8.716;2023-05-29T11:31:24;32.40;27.20
11229;DHT22;5671;47.936;8.716;2023-05-29T11:34:03;32.80;27.00
11229;DHT22;5671;47.936;8.716;2023-05-29T11:36:31;33.30;26.80
11229;DHT22;5671;47.936;8.716;2023-05-29T11:39:02;33.50;25.90
11229;DHT22;5671;47.936;8.716;2023-05-29T11:41:30;33.60;26.00
11229;DHT22;5671;47.936;8.716;2023-05-29T11:44:01;33.70;25.00
11229;DHT22;5671;47.936;8.716;2023-05-29T11:46:34;33.80;24.80
11229;DHT22;5671;47.936;8.716;2023-05-29T11:49:04;34.00;24.40
11229;DHT22;5671;47.936;8.716;2023-05-29T11:51:31;34.10;25.20
11229;DHT22;5671;47.936;8.716;2023-05-29T11:53:58;34.10;25.50
11229;DHT22;5671;47.936;8.716;2023-05-29T11:56:30;34.30;26.20
11229;DHT22;5671;47.936;8.716;2023-05-29T11:59:15;34.60;25.00
11229;DHT22;5671;47.936;8.716;2023-05-29T12:01:49;34.80;23.90
11229;DHT22;5671;47.936;8.716;2023-05-29T12:04:20;35.00;25.90
11229;DHT22;5671;47.936;8.716;2023-05-29T12:06:47;35.30;24.90
11229;DHT22;5671;47.936;8.716;2023-05-29T12:09:26;35.30;24.80
11229;DHT22;5671;47.936;8.716;2023-05-29T12:12:26;35.30;24.00
11229;DHT22;5671;47.936;8.716;2023-05-29T12:15:11;35.50;24.20
11229;DHT22;5671;47.936;8.716;2023-05-29T12:17:40;35.40;25.10
11229;DHT22;5671;47.936;8.716;2023-05-29T12:20:07;35.50;25.50
11229;DHT22;5671;47.936;8.716;2023-05-29T12:22:37;35.50;25.00
11229;DHT22;5671;47.936;8.716;2023-05-29T12:25:19;35.70;24.80
11229;DHT22;5671;47.936;8.716;2023-05-29T12:27:49;35.90;24.60
11229;DHT22;5671;47.936;8.716;2023-05-29T12:30:22;36.00;24.10
11229;DHT22;5671;47.936;8.716;2023-05-29T12:32:50;36.00;23.50
11229;DHT22;5671;47.936;8.716;2023-05-29T12:35:19;36.00;22.20
11229;DHT22;5671;47.936;8.716;2023-05-29T12:37:53;36.00;23.40
11229;DHT22;5671;47.936;8.716;2023-05-29T12:40:21;35.80;24.30
11229;DHT22;5671;47.936;8.716;2023-05-29T12:43:00;35.80;23.80
11229;DHT22;5671;47.936;8.716;2023-05-29T12:45:32;35.90;23.90
11229;DHT22;5671;47.936;8.716;2023-05-29T12:48:05;35.50;23.60
11229;DHT22;5671;47.936;8.716;2023-05-29T12:50:33;35.50;24.40
11229;DHT22;5671;47.936;8.716;2023-05-29T12:53:11;35.40;25.10
11229;DHT22;5671;47.936;8.716;2023-05-29T12:55:46;35.50;24.10
11229;DHT22;5671;47.936;8.716;2023-05-29T12:58:20;35.30;24.90
11229;DHT22;5671;47.936;8.716;2023-05-29T13:00:53;35.30;24.60
11229;DHT22;5671;47.936;8.716;2023-05-29T13:03:22;35.30;24.50
11229;DHT22;5671;47.936;8.716;2023-05-29T13:05:50;35.30;25.60
11229;DHT22;5671;47.936;8.716;2023-05-29T13:08:17;35.00;25.10
11229;DHT22;5671;47.936;8.716;2023-05-29T13:10:44;34.70;25.40
11229;DHT22;5671;47.936;8.716;2023-05-29T13:13:11;34.60;25.90
11229;DHT22;5671;47.936;8.716;2023-05-29T13:15:39;34.30;25.10
11229;DHT22;5671;47.936;8.716;2023-05-29T13:18:06;34.00;25.80
11229;DHT22;5671;47.936;8.716;2023-05-29T13:20:33;33.70;25.20
11229;DHT22;5671;47.936;8.716;2023-05-29T13:23:03;33.40;25.00
11229;DHT22;5671;47.936;8.716;2023-05-29T13:25:32;33.00;25.00
11229;DHT22;5671;47.936;8.716;2023-05-29T13:27:59;32.80;25.50
11229;DHT22;5671;47.936;8.716;2023-05-29T13:30:31;32.40;25.00
11229;DHT22;5671;47.936;8.716;2023-05-29T13:33:14;32.10;25.40
11229;DHT22;5671;47.936;8.716;2023-05-29T13:35:43;31.90;26.20
11229;DHT22;5671;47.936;8.716;2023-05-29T13:38:10;31.70;26.30
11229;DHT22;5671;47.936;8.716;2023-05-29T13:40:42;31.60;27.20
11229;DHT22;5671;47.936;8.716;2023-05-29T13:43:09;31.50;26.30
11229;DHT22;5671;47.936;8.716;2023-05-29T13:45:39;31.10;25.70
11229;DHT22;5671;47.936;8.716;2023-05-29T13:48:06;30.70;27.00
11229;DHT22;5671;47.936;8.716;2023-05-29T13:50:46;30.50;27.50
11229;DHT22;5671;47.936;8.716;2023-05-29T13:53:13;30.30;26.50
11229;DHT22;5671;47.936;8.716;2023-05-29T13:55:41;30.10;27.80
11229;DHT22;5671;47.936;8.716;2023-05-29T13:58:08;30.00;28.20
11229;DHT22;5671;47.936;8.716;2023-05-29T14:00:34;29.90;28.00
11229;DHT22;5671;47.936;8.716;2023-05-29T14:06:01;29.70;27.20
11229;DHT22;5671;47.936;8.716;2023-05-29T14:08:30;29.50;27.90
11229;DHT22;5671;47.936;8.716;2023-05-29T14:11:00;29.40;28.40
11229;DHT22;5671;47.936;8.716;2023-05-29T14:13:41;29.30;28.10
11229;DHT22;5671;47.936;8.716;2023-05-29T14:16:11;28.90;29.20
11229;DHT22;5671;47.936;8.716;2023-05-29T14:18:40;28.80;28.90
11229;DHT22;5671;47.936;8.716;2023-05-29T14:21:09;28.70;28.80
11229;DHT22;5671;47.936;8.716;2023-05-29T14:23:40;28.60;29.10
11229;DHT22;5671;47.936;8.716;2023-05-29T14:26:07;28.50;29.70
11229;DHT22;5671;47.936;8.716;2023-05-29T14:28:34;28.30;29.30
11229;DHT22;5671;47.936;8.716;2023-05-29T14:31:02;28.30;29.90
11229;DHT22;5671;47.936;8.716;2023-05-29T14:33:32;28.10;30.00
11229;DHT22;5671;47.936;8.716;2023-05-29T14:35:59;27.90;30.00
11229;DHT22;5671;47.936;8.716;2023-05-29T14:38:28;27.80;29.60
11229;DHT22;5671;47.936;8.716;2023-05-29T14:44:01;27.40;28.80
11229;DHT22;5671;47.936;8.716;2023-05-29T14:46:49;27.20;30.30
11229;DHT22;5671;47.936;8.716;2023-05-29T14:49:15;27.10;30.10
11229;DHT22;5671;47.936;8.716;2023-05-29T14:51:44;27.00;30.00
11229;DHT22;5671;47.936;8.716;2023-05-29T14:54:12;26.90;30.50
11229;DHT22;5671;47.936;8.716;2023-05-29T14:56:57;26.70;28.70
11229;DHT22;5671;47.936;8.716;2023-05-29T14:59:31;26.60;28.30
11229;DHT22;5671;47.936;8.716;2023-05-29T15:01:59;26.60;29.40
11229;DHT22;5671;47.936;8.716;2023-05-29T15:04:33;26.40;29.60
11229;DHT22;5671;47.936;8.716;2023-05-29T15:07:05;26.40;28.70
11229;DHT22;5671;47.936;8.716;2023-05-29T15:09:33;26.30;30.50
11229;DHT22;5671;47.936;8.716;2023-05-29T15:12:00;26.20;29.40
11229;DHT22;5671;47.936;8.716;2023-05-29T15:14:31;26.10;30.40
11229;DHT22;5671;47.936;8.716;2023-05-29T15:16:58;26.10;29.80
11229;DHT22;5671;47.936;8.716;2023-05-29T15:19:25;26.00;29.40
11229;DHT22;5671;47.936;8.716;2023-05-29T15:21:52;25.80;29.60
11229;DHT22;5671;47.936;8.716;2023-05-29T15:24:19;25.70;29.90
11229;DHT22;5671;47.936;8.716;2023-05-29T15:26:51;25.60;29.90
11229;DHT22;5671;47.936;8.716;2023-05-29T15:29:35;25.60;31.20
11229;DHT22;5671;47.936;8.716;2023-05-29T15:32:02;25.60;31.00
11229;DHT22;5671;47.936;8.716;2023-05-29T15:34:29;25.50;30.20
11229;DHT22;5671;47.936;8.716;2023-05-29T15:37:01;25.50;29.00
11229;DHT22;5671;47.936;8.716;2023-05-29T15:39:40;25.40;29.90
11229;DHT22;5671;47.936;8.716;2023-05-29T15:42:22;25.40;30.30
11229;DHT22;5671;47.936;8.716;2023-05-29T15:44:51;25.30;30.00
11229;DHT22;5671;47.936;8.716;2023-05-29T15:47:24;25.20;29.90
11229;DHT22;5671;47.936;8.716;2023-05-29T15:49:54;25.10;30.40
11229;DHT22;5671;47.936;8.716;2023-05-29T15:52:21;25.00;29.80
11229;DHT22;5671;47.936;8.716;2023-05-29T15:54:55;25.00;30.50
11229;DHT22;5671;47.936;8.716;2023-05-29T15:57:45;24.90;29.90
11229;DHT22;5671;47.936;8.716;2023-05-29T16:00:14;24.70;29.50
11229;DHT22;5671;47.936;8.716;2023-05-29T16:02:44;24.60;30.30
11229;DHT22;5671;47.936;8.716;2023-05-29T16:05:11;24.60;30.00
11229;DHT22;5671;47.936;8.716;2023-05-29T16:07:39;24.50;30.00
11229;DHT22;5671;47.936;8.716;2023-05-29T16:10:13;24.40;29.20
11229;DHT22;5671;47.936;8.716;2023-05-29T16:12:57;24.30;29.90
11229;DHT22;5671;47.936;8.716;2023-05-29T16:15:24;24.30;29.40